sensor_id;sensor_type;location;lat;lon;timestamp;P1;durP1;ratioP1;P2;durP2;ratioP2
6109;SDS011;3085;49.444;11.054;2022-11-11T00:00:34;20.57;;;4.90;;
6109;SDS011;3085;49.444;11.054;2022-11-11T00:03:02;6.40;;;3.67;;
6109;SDS011;3085;49.444;11.054;2022-11-11T00:05:31;9.00;;;4.67;;
6109;SDS011;3085;49.444;11.054;2022-11-11T00:07:58;9.03;;;4.63;;
6109;SDS011;3085;49.444;11.054;2022-11-11T00:10:25;14.40;;;5.80;;
6109;SDS011;3085;49.444;11.054;2022-11-11T00:12:53;8.80;;;4.20;;
6109;SDS011;3085;49.444;11.054;2022-11-11T00:15:23;7.27;;;4.10;;
6109;SDS011;3085;49.444;11.054;2022-11-11T00:17:51;6.03;;;3.47;;
6109;SDS011;3085;49.444;11.054;2022-11-11T00:20:36;8.07;;;3.80;;
6109;SDS011;3085;49.444;11.054;2022-11-11T00:23:20;8.70;;;4.10;;
6109;SDS011;3085;49.444;11.054;2022-11-11T00:26:06;8.00;;;3.97;;
6109;SDS011;3085;49.444;11.054;2022-11-11T00:28:33;6.07;;;4.07;;
6109;SDS011;3085;49.444;11.054;2022-11-11T00:31:00;5.47;;;3.70;;
6109;SDS011;3085;49.444;11.054;2022-11-11T00:33:30;15.43;;;4.00;;
6109;SDS011;3085;49.444;11.054;2022-11-11T00:35:57;11.40;;;4.37;;
6109;SDS011;3085;49.444;11.054;2022-11-11T00:38:25;12.87;;;4.87;;
6109;SDS011;3085;49.444;11.054;2022-11-11T00:41:06;9.30;;;4.40;;
6109;SDS011;3085;49.444;11.054;2022-11-11T00:43:32;18.77;;;6.20;;
6109;SDS011;3085;49.444;11.054;2022-11-11T00:45:59;29.23;;;7.20;;
6109;SDS011;3085;49.444;11.054;2022-11-11T00:48:41;20.30;;;7.50;;
6109;SDS011;3085;49.444;11.054;2022-11-11T00:51:26;14.67;;;6.70;;
6109;SDS011;3085;49.444;11.054;2022-11-11T00:53:53;21.80;;;7.80;;
6109;SDS011;3085;49.444;11.054;2022-11-11T00:56:20;24.27;;;7.63;;
6109;SDS011;3085;49.444;11.054;2022-11-11T00:58:47;27.60;;;7.67;;
6109;SDS011;3085;49.444;11.054;2022-11-11T01:01:13;19.33;;;7.10;;
6109;SDS011;3085;49.444;11.054;2022-11-11T01:03:42;16.10;;;6.30;;
6109;SDS011;3085;49.444;11.054;2022-11-11T01:06:09;18.17;;;6.90;;
6109;SDS011;3085;49.444;11.054;2022-11-11T01:08:37;16.97;;;5.73;;
6109;SDS011;3085;49.444;11.054;2022-11-11T01:11:10;22.27;;;7.37;;
6109;SDS011;3085;49.444;11.054;2022-11-11T01:13:37;16.50;;;6.03;;
6109;SDS011;3085;49.444;11.054;2022-11-11T01:16:05;13.17;;;6.70;;
6109;SDS011;3085;49.444;11.054;2022-11-11T01:18:33;15.10;;;6.83;;
6109;SDS011;3085;49.444;11.054;2022-11-11T01:21:02;14.60;;;5.80;;
6109;SDS011;3085;49.444;11.054;2022-11-11T01:23:32;12.50;;;6.00;;
6109;SDS011;3085;49.444;11.054;2022-11-11T01:26:02;12.30;;;5.10;;
6109;SDS011;3085;49.444;11.054;2022-11-11T01:28:30;21.10;;;4.93;;
6109;SDS011;3085;49.444;11.054;2022-11-11T01:31:01;11.50;;;4.87;;
6109;SDS011;3085;49.444;11.054;2022-11-11T01:33:29;8.67;;;4.00;;
6109;SDS011;3085;49.444;11.054;2022-11-11T01:36:02;9.17;;;4.17;;
6109;SDS011;3085;49.444;11.054;2022-11-11T01:38:30;5.30;;;3.60;;
6109;SDS011;3085;49.444;11.054;2022-11-11T01:40:57;7.37;;;4.20;;
6109;SDS011;3085;49.444;11.054;2022-11-11T01:43:24;6.13;;;3.40;;
6109;SDS011;3085;49.444;11.054;2022-11-11T01:45:53;5.93;;;3.47;;
6109;SDS011;3085;49.444;11.054;2022-11-11T01:48:26;6.73;;;4.17;;
6109;SDS011;3085;49.444;11.054;2022-11-11T01:51:18;8.53;;;4.13;;
6109;SDS011;3085;49.444;11.054;2022-11-11T01:53:51;15.57;;;4.10;;
6109;SDS011;3085;49.444;11.054;2022-11-11T01:56:22;10.43;;;3.53;;
6109;SDS011;3085;49.444;11.054;2022-11-11T01:58:49;7.83;;;3.70;;
6109;SDS011;3085;49.444;11.054;2022-11-11T02:01:18;9.77;;;3.37;;
6109;SDS011;3085;49.444;11.054;2022-11-11T02:03:45;6.53;;;3.97;;
6109;SDS011;3085;49.444;11.054;2022-11-11T02:06:47;4.83;;;3.03;;
6109;SDS011;3085;49.444;11.054;2022-11-11T02:09:16;7.47;;;3.33;;
6109;SDS011;3085;49.444;11.054;2022-11-11T02:11:43;6.80;;;3.40;;
6109;SDS011;3085;49.444;11.054;2022-11-11T02:14:28;7.67;;;3.63;;
6109;SDS011;3085;49.444;11.054;2022-11-11T02:17:07;8.50;;;3.83;;
6109;SDS011;3085;49.444;11.054;2022-11-11T02:19:41;8.00;;;4.20;;
6109;SDS011;3085;49.444;11.054;2022-11-11T02:22:15;16.33;;;4.30;;
6109;SDS011;3085;49.444;11.054;2022-11-11T02:24:49;5.50;;;3.40;;
6109;SDS011;3085;49.444;11.054;2022-11-11T02:27:18;7.07;;;3.40;;
6109;SDS011;3085;49.444;11.054;2022-11-11T02:29:48;5.20;;;3.57;;
6109;SDS011;3085;49.444;11.054;2022-11-11T02:32:18;7.60;;;3.67;;
6109;SDS011;3085;49.444;11.054;2022-11-11T02:34:44;5.13;;;3.50;;
6109;SDS011;3085;49.444;11.054;2022-11-11T02:37:11;8.40;;;3.33;;
6109;SDS011;3085;49.444;11.054;2022-11-11T02:39:43;10.00;;;4.17;;
6109;SDS011;3085;49.444;11.054;2022-11-11T02:42:14;4.73;;;3.20;;
6109;SDS011;3085;49.444;11.054;2022-11-11T02:44:43;11.93;;;3.20;;
6109;SDS011;3085;49.444;11.054;2022-11-11T02:47:09;5.57;;;3.37;;
6109;SDS011;3085;49.444;11.054;2022-11-11T02:49:36;10.97;;;4.00;;
6109;SDS011;3085;49.444;11.054;2022-11-11T02:52:03;8.10;;;4.00;;
6109;SDS011;3085;49.444;11.054;2022-11-11T02:54:30;4.50;;;3.30;;
6109;SDS011;3085;49.444;11.054;2022-11-11T02:56:57;5.77;;;3.67;;
6109;SDS011;3085;49.444;11.054;2022-11-11T02:59:35;6.17;;;3.60;;
6109;SDS011;3085;49.444;11.054;2022-11-11T03:02:03;8.47;;;4.20;;
6109;SDS011;3085;49.444;11.054;2022-11-11T03:04:30;14.63;;;5.53;;
6109;SDS011;3085;49.444;11.054;2022-11-11T03:06:57;7.90;;;3.47;;
6109;SDS011;3085;49.444;11.054;2022-11-11T03:09:24;12.70;;;3.80;;
6109;SDS011;3085;49.444;11.054;2022-11-11T03:11:51;5.63;;;3.87;;
6109;SDS011;3085;49.444;11.054;2022-11-11T03:14:18;6.33;;;3.53;;
6109;SDS011;3085;49.444;11.054;2022-11-11T03:16:46;6.07;;;4.17;;
6109;SDS011;3085;49.444;11.054;2022-11-11T03:19:31;9.30;;;3.93;;
6109;SDS011;3085;49.444;11.054;2022-11-11T03:22:01;5.87;;;3.70;;
6109;SDS011;3085;49.444;11.054;2022-11-11T03:24:27;12.90;;;4.53;;
6109;SDS011;3085;49.444;11.054;2022-11-11T03:27:09;6.20;;;3.47;;
6109;SDS011;3085;49.444;11.054;2022-11-11T03:29:35;6.43;;;3.30;;
6109;SDS011;3085;49.444;11.054;2022-11-11T03:32:04;7.83;;;3.67;;
6109;SDS011;3085;49.444;11.054;2022-11-11T03:34:31;12.10;;;4.80;;
6109;SDS011;3085;49.444;11.054;2022-11-11T03:36:58;10.77;;;3.57;;
6109;SDS011;3085;49.444;11.054;2022-11-11T03:39:42;11.60;;;3.90;;
6109;SDS011;3085;49.444;11.054;2022-11-11T03:42:09;7.77;;;3.73;;
6109;SDS011;3085;49.444;11.054;2022-11-11T03:44:36;5.67;;;3.63;;
6109;SDS011;3085;49.444;11.054;2022-11-11T03:47:04;6.23;;;3.60;;
6109;SDS011;3085;49.444;11.054;2022-11-11T03:49:31;9.17;;;4.00;;
6109;SDS011;3085;49.444;11.054;2022-11-11T03:51:58;7.77;;;3.53;;
6109;SDS011;3085;49.444;11.054;2022-11-11T03:54:25;9.67;;;3.70;;
6109;SDS011;3085;49.444;11.054;2022-11-11T03:56:52;7.77;;;3.53;;
6109;SDS011;3085;49.444;11.054;2022-11-11T03:59:39;4.33;;;3.10;;
6109;SDS011;3085;49.444;11.054;2022-11-11T04:02:08;6.20;;;3.80;;
6109;SDS011;3085;49.444;11.054;2022-11-11T04:05:09;8.17;;;3.20;;
6109;SDS011;3085;49.444;11.054;2022-11-11T04:07:53;7.73;;;4.00;;
6109;SDS011;3085;49.444;11.054;2022-11-11T04:10:52;6.53;;;3.23;;
6109;SDS011;3085;49.444;11.054;2022-11-11T04:13:19;9.23;;;3.50;;
6109;SDS011;3085;49.444;11.054;2022-11-11T04:16:03;7.13;;;4.40;;
6109;SDS011;3085;49.444;11.054;2022-11-11T04:18:35;5.60;;;3.77;;
6109;SDS011;3085;49.444;11.054;2022-11-11T04:21:20;9.10;;;4.27;;
6109;SDS011;3085;49.444;11.054;2022-11-11T04:24:05;6.93;;;4.10;;
6109;SDS011;3085;49.444;11.054;2022-11-11T04:26:46;9.43;;;4.40;;
6109;SDS011;3085;49.444;11.054;2022-11-11T04:29:12;7.63;;;4.03;;
6109;SDS011;3085;49.444;11.054;2022-11-11T04:31:54;9.00;;;4.50;;
6109;SDS011;3085;49.444;11.054;2022-11-11T04:34:44;7.43;;;3.77;;
6109;SDS011;3085;49.444;11.054;2022-11-11T04:37:12;6.90;;;4.50;;
6109;SDS011;3085;49.444;11.054;2022-11-11T04:39:40;6.73;;;3.40;;
6109;SDS011;3085;49.444;11.054;2022-11-11T04:42:26;9.00;;;4.10;;
6109;SDS011;3085;49.444;11.054;2022-11-11T04:44:53;5.50;;;3.60;;
6109;SDS011;3085;49.444;11.054;2022-11-11T04:47:38;11.10;;;4.10;;
6109;SDS011;3085;49.444;11.054;2022-11-11T04:50:19;13.33;;;4.10;;
6109;SDS011;3085;49.444;11.054;2022-11-11T04:52:46;10.60;;;4.93;;
6109;SDS011;3085;49.444;11.054;2022-11-11T04:55:13;8.57;;;3.87;;
6109;SDS011;3085;49.444;11.054;2022-11-11T04:57:58;7.43;;;4.13;;
6109;SDS011;3085;49.444;11.054;2022-11-11T05:00:25;6.30;;;4.40;;
6109;SDS011;3085;49.444;11.054;2022-11-11T05:02:52;13.23;;;4.40;;
6109;SDS011;3085;49.444;11.054;2022-11-11T05:05:38;16.43;;;4.97;;
6109;SDS011;3085;49.444;11.054;2022-11-11T05:08:22;18.17;;;4.10;;
6109;SDS011;3085;49.444;11.054;2022-11-11T05:11:07;9.17;;;3.70;;
6109;SDS011;3085;49.444;11.054;2022-11-11T05:13:34;11.73;;;4.47;;
6109;SDS011;3085;49.444;11.054;2022-11-11T05:16:19;6.13;;;4.53;;
6109;SDS011;3085;49.444;11.054;2022-11-11T05:19:08;9.23;;;4.60;;
6109;SDS011;3085;49.444;11.054;2022-11-11T05:21:55;9.33;;;4.10;;
6109;SDS011;3085;49.444;11.054;2022-11-11T05:24:27;7.93;;;3.93;;
6109;SDS011;3085;49.444;11.054;2022-11-11T05:27:12;5.93;;;4.03;;
6109;SDS011;3085;49.444;11.054;2022-11-11T05:29:38;8.00;;;3.63;;
6109;SDS011;3085;49.444;11.054;2022-11-11T05:32:06;7.87;;;4.40;;
6109;SDS011;3085;49.444;11.054;2022-11-11T05:34:33;4.93;;;3.60;;
6109;SDS011;3085;49.444;11.054;2022-11-11T05:37:01;4.67;;;3.40;;
6109;SDS011;3085;49.444;11.054;2022-11-11T05:39:28;9.90;;;4.70;;
6109;SDS011;3085;49.444;11.054;2022-11-11T05:41:55;6.73;;;3.87;;
6109;SDS011;3085;49.444;11.054;2022-11-11T05:44:22;8.53;;;4.10;;
6109;SDS011;3085;49.444;11.054;2022-11-11T05:46:49;6.43;;;3.70;;
6109;SDS011;3085;49.444;11.054;2022-11-11T05:49:15;6.87;;;4.27;;
6109;SDS011;3085;49.444;11.054;2022-11-11T05:51:42;8.63;;;3.87;;
6109;SDS011;3085;49.444;11.054;2022-11-11T05:54:11;17.23;;;4.70;;
6109;SDS011;3085;49.444;11.054;2022-11-11T05:56:38;9.27;;;4.60;;
6109;SDS011;3085;49.444;11.054;2022-11-11T05:59:05;24.47;;;3.93;;
6109;SDS011;3085;49.444;11.054;2022-11-11T06:01:33;11.80;;;5.13;;
6109;SDS011;3085;49.444;11.054;2022-11-11T06:04:03;6.77;;;4.80;;
6109;SDS011;3085;49.444;11.054;2022-11-11T06:06:33;10.37;;;5.03;;
6109;SDS011;3085;49.444;11.054;2022-11-11T06:09:00;10.17;;;4.23;;
6109;SDS011;3085;49.444;11.054;2022-11-11T06:11:29;6.60;;;4.33;;
6109;SDS011;3085;49.444;11.054;2022-11-11T06:13:57;7.00;;;4.43;;
6109;SDS011;3085;49.444;11.054;2022-11-11T06:16:23;10.37;;;4.47;;
6109;SDS011;3085;49.444;11.054;2022-11-11T06:18:52;12.80;;;4.60;;
6109;SDS011;3085;49.444;11.054;2022-11-11T06:21:19;10.90;;;4.20;;
6109;SDS011;3085;49.444;11.054;2022-11-11T06:23:49;7.47;;;4.40;;
6109;SDS011;3085;49.444;11.054;2022-11-11T06:26:15;6.37;;;4.10;;
6109;SDS011;3085;49.444;11.054;2022-11-11T06:28:44;7.10;;;4.00;;
6109;SDS011;3085;49.444;11.054;2022-11-11T06:31:12;18.13;;;4.33;;
6109;SDS011;3085;49.444;11.054;2022-11-11T06:33:41;7.03;;;4.03;;
6109;SDS011;3085;49.444;11.054;2022-11-11T06:36:09;12.83;;;4.33;;
6109;SDS011;3085;49.444;11.054;2022-11-11T06:38:37;8.87;;;5.17;;
6109;SDS011;3085;49.444;11.054;2022-11-11T06:41:04;13.00;;;5.40;;
6109;SDS011;3085;49.444;11.054;2022-11-11T06:43:31;9.40;;;5.00;;
6109;SDS011;3085;49.444;11.054;2022-11-11T06:45:59;10.57;;;5.30;;
6109;SDS011;3085;49.444;11.054;2022-11-11T06:48:27;10.10;;;5.03;;
6109;SDS011;3085;49.444;11.054;2022-11-11T06:50:54;10.00;;;4.13;;
6109;SDS011;3085;49.444;11.054;2022-11-11T06:53:27;8.00;;;4.00;;
6109;SDS011;3085;49.444;11.054;2022-11-11T06:55:54;8.33;;;3.67;;
6109;SDS011;3085;49.444;11.054;2022-11-11T06:58:21;9.00;;;3.90;;
6109;SDS011;3085;49.444;11.054;2022-11-11T07:00:54;5.77;;;4.30;;
6109;SDS011;3085;49.444;11.054;2022-11-11T07:03:22;8.50;;;4.63;;
6109;SDS011;3085;49.444;11.054;2022-11-11T07:05:49;8.13;;;4.67;;
6109;SDS011;3085;49.444;11.054;2022-11-11T07:08:17;7.07;;;4.40;;
6109;SDS011;3085;49.444;11.054;2022-11-11T07:10:45;8.00;;;4.00;;
6109;SDS011;3085;49.444;11.054;2022-11-11T07:13:13;8.80;;;4.80;;
6109;SDS011;3085;49.444;11.054;2022-11-11T07:15:40;11.60;;;5.63;;
6109;SDS011;3085;49.444;11.054;2022-11-11T07:18:08;13.50;;;5.70;;
6109;SDS011;3085;49.444;11.054;2022-11-11T07:20:40;8.90;;;5.20;;
6109;SDS011;3085;49.444;11.054;2022-11-11T07:23:06;9.80;;;5.27;;
6109;SDS011;3085;49.444;11.054;2022-11-11T07:25:33;10.90;;;6.00;;
6109;SDS011;3085;49.444;11.054;2022-11-11T07:28:00;9.33;;;4.50;;
6109;SDS011;3085;49.444;11.054;2022-11-11T07:30:27;7.30;;;4.10;;
6109;SDS011;3085;49.444;11.054;2022-11-11T07:32:54;14.77;;;4.30;;
6109;SDS011;3085;49.444;11.054;2022-11-11T07:35:22;6.17;;;3.80;;
6109;SDS011;3085;49.444;11.054;2022-11-11T07:37:50;6.77;;;4.53;;
6109;SDS011;3085;49.444;11.054;2022-11-11T07:40:17;5.40;;;3.77;;
6109;SDS011;3085;49.444;11.054;2022-11-11T07:42:45;9.33;;;5.53;;
6109;SDS011;3085;49.444;11.054;2022-11-11T07:45:12;9.80;;;4.50;;
6109;SDS011;3085;49.444;11.054;2022-11-11T07:47:41;7.40;;;4.33;;
6109;SDS011;3085;49.444;11.054;2022-11-11T07:50:10;7.07;;;3.77;;
6109;SDS011;3085;49.444;11.054;2022-11-11T07:52:38;7.00;;;3.90;;
6109;SDS011;3085;49.444;11.054;2022-11-11T07:55:07;6.20;;;3.80;;
6109;SDS011;3085;49.444;11.054;2022-11-11T07:57:35;7.20;;;4.37;;
6109;SDS011;3085;49.444;11.054;2022-11-11T08:00:03;5.83;;;3.73;;
6109;SDS011;3085;49.444;11.054;2022-11-11T08:02:30;7.73;;;5.10;;
6109;SDS011;3085;49.444;11.054;2022-11-11T08:04:57;17.80;;;4.37;;
6109;SDS011;3085;49.444;11.054;2022-11-11T08:07:24;6.80;;;4.03;;
6109;SDS011;3085;49.444;11.054;2022-11-11T08:09:51;4.90;;;3.90;;
6109;SDS011;3085;49.444;11.054;2022-11-11T08:12:19;9.40;;;4.50;;
6109;SDS011;3085;49.444;11.054;2022-11-11T08:15:04;8.00;;;4.73;;
6109;SDS011;3085;49.444;11.054;2022-11-11T08:17:35;8.80;;;5.20;;
6109;SDS011;3085;49.444;11.054;2022-11-11T08:20:03;5.60;;;3.93;;
6109;SDS011;3085;49.444;11.054;2022-11-11T08:22:34;7.30;;;4.17;;
6109;SDS011;3085;49.444;11.054;2022-11-11T08:25:01;18.77;;;5.80;;
6109;SDS011;3085;49.444;11.054;2022-11-11T08:27:30;8.13;;;4.20;;
6109;SDS011;3085;49.444;11.054;2022-11-11T08:29:57;12.10;;;4.67;;
6109;SDS011;3085;49.444;11.054;2022-11-11T08:32:24;10.87;;;4.03;;
6109;SDS011;3085;49.444;11.054;2022-11-11T08:34:51;6.33;;;3.27;;
6109;SDS011;3085;49.444;11.054;2022-11-11T08:37:18;5.83;;;3.73;;
6109;SDS011;3085;49.444;11.054;2022-11-11T08:39:45;14.47;;;5.00;;
6109;SDS011;3085;49.444;11.054;2022-11-11T08:42:12;9.57;;;5.00;;
6109;SDS011;3085;49.444;11.054;2022-11-11T08:44:40;10.33;;;4.67;;
6109;SDS011;3085;49.444;11.054;2022-11-11T08:47:07;9.57;;;4.50;;
6109;SDS011;3085;49.444;11.054;2022-11-11T08:49:34;13.40;;;6.07;;
6109;SDS011;3085;49.444;11.054;2022-11-11T08:52:01;10.20;;;4.70;;
6109;SDS011;3085;49.444;11.054;2022-11-11T08:54:28;8.77;;;4.80;;
6109;SDS011;3085;49.444;11.054;2022-11-11T08:56:55;14.17;;;7.83;;
6109;SDS011;3085;49.444;11.054;2022-11-11T08:59:22;11.20;;;5.60;;
6109;SDS011;3085;49.444;11.054;2022-11-11T09:01:50;7.90;;;4.77;;
6109;SDS011;3085;49.444;11.054;2022-11-11T09:04:17;9.27;;;6.00;;
6109;SDS011;3085;49.444;11.054;2022-11-11T09:06:44;11.10;;;5.60;;
6109;SDS011;3085;49.444;11.054;2022-11-11T09:09:12;10.67;;;4.80;;
6109;SDS011;3085;49.444;11.054;2022-11-11T09:11:39;11.93;;;4.50;;
6109;SDS011;3085;49.444;11.054;2022-11-11T09:14:06;9.20;;;4.30;;
6109;SDS011;3085;49.444;11.054;2022-11-11T09:16:36;8.50;;;4.53;;
6109;SDS011;3085;49.444;11.054;2022-11-11T09:19:04;9.70;;;4.80;;
6109;SDS011;3085;49.444;11.054;2022-11-11T09:21:31;10.10;;;5.20;;
6109;SDS011;3085;49.444;11.054;2022-11-11T09:23:57;9.50;;;5.30;;
6109;SDS011;3085;49.444;11.054;2022-11-11T09:26:25;10.20;;;5.30;;
6109;SDS011;3085;49.444;11.054;2022-11-11T09:28:51;11.53;;;4.67;;
6109;SDS011;3085;49.444;11.054;2022-11-11T09:31:18;9.17;;;4.73;;
6109;SDS011;3085;49.444;11.054;2022-11-11T09:33:47;8.90;;;4.70;;
6109;SDS011;3085;49.444;11.054;2022-11-11T09:36:15;7.97;;;4.53;;
6109;SDS011;3085;49.444;11.054;2022-11-11T09:38:42;14.53;;;4.83;;
6109;SDS011;3085;49.444;11.054;2022-11-11T09:41:12;9.53;;;5.40;;
6109;SDS011;3085;49.444;11.054;2022-11-11T09:43:45;9.67;;;5.13;;
6109;SDS011;3085;49.444;11.054;2022-11-11T09:49:18;8.90;;;5.00;;
6109;SDS011;3085;49.444;11.054;2022-11-11T09:52:11;8.97;;;5.33;;
6109;SDS011;3085;49.444;11.054;2022-11-11T09:54:42;10.90;;;5.37;;
6109;SDS011;3085;49.444;11.054;2022-11-11T09:57:14;8.07;;;4.37;;
6109;SDS011;3085;49.444;11.054;2022-11-11T09:59:47;8.17;;;4.60;;
6109;SDS011;3085;49.444;11.054;2022-11-11T10:02:18;7.00;;;4.73;;
6109;SDS011;3085;49.444;11.054;2022-11-11T10:04:54;16.90;;;5.03;;
6109;SDS011;3085;49.444;11.054;2022-11-11T10:07:32;15.73;;;4.97;;
6109;SDS011;3085;49.444;11.054;2022-11-11T10:10:07;9.93;;;5.17;;
6109;SDS011;3085;49.444;11.054;2022-11-11T10:12:41;7.87;;;4.17;;
6109;SDS011;3085;49.444;11.054;2022-11-11T10:15:13;11.20;;;4.27;;
6109;SDS011;3085;49.444;11.054;2022-11-11T10:17:43;6.97;;;3.87;;
6109;SDS011;3085;49.444;11.054;2022-11-11T10:20:19;7.20;;;4.40;;
6109;SDS011;3085;49.444;11.054;2022-11-11T10:22:52;6.83;;;3.60;;
6109;SDS011;3085;49.444;11.054;2022-11-11T10:25:25;6.50;;;3.90;;
6109;SDS011;3085;49.444;11.054;2022-11-11T10:27:53;9.73;;;4.30;;
6109;SDS011;3085;49.444;11.054;2022-11-11T10:30:24;9.23;;;3.93;;
6109;SDS011;3085;49.444;11.054;2022-11-11T10:32:53;8.37;;;4.27;;
6109;SDS011;3085;49.444;11.054;2022-11-11T10:35:24;7.93;;;3.70;;
6109;SDS011;3085;49.444;11.054;2022-11-11T10:37:57;11.10;;;3.93;;
6109;SDS011;3085;49.444;11.054;2022-11-11T10:40:32;5.83;;;3.57;;
6109;SDS011;3085;49.444;11.054;2022-11-11T10:43:03;9.90;;;4.07;;
6109;SDS011;3085;49.444;11.054;2022-11-11T10:45:31;11.27;;;3.37;;
6109;SDS011;3085;49.444;11.054;2022-11-11T10:48:04;6.33;;;3.67;;
6109;SDS011;3085;49.444;11.054;2022-11-11T10:50:35;5.40;;;3.30;;
6109;SDS011;3085;49.444;11.054;2022-11-11T10:53:12;8.07;;;4.03;;
6109;SDS011;3085;49.444;11.054;2022-11-11T10:55:44;10.93;;;5.07;;
6109;SDS011;3085;49.444;11.054;2022-11-11T10:58:18;5.30;;;3.37;;
6109;SDS011;3085;49.444;11.054;2022-11-11T11:00:48;10.90;;;3.70;;
6109;SDS011;3085;49.444;11.054;2022-11-11T11:03:21;7.83;;;3.50;;
6109;SDS011;3085;49.444;11.054;2022-11-11T11:06:03;6.00;;;3.20;;
6109;SDS011;3085;49.444;11.054;2022-11-11T11:08:38;8.97;;;3.50;;
6109;SDS011;3085;49.444;11.054;2022-11-11T11:11:14;7.53;;;3.67;;
6109;SDS011;3085;49.444;11.054;2022-11-11T11:13:46;6.70;;;3.70;;
6109;SDS011;3085;49.444;11.054;2022-11-11T11:16:18;13.83;;;4.23;;
6109;SDS011;3085;49.444;11.054;2022-11-11T11:21:47;8.50;;;3.37;;
6109;SDS011;3085;49.444;11.054;2022-11-11T11:24:21;4.53;;;2.87;;
6109;SDS011;3085;49.444;11.054;2022-11-11T11:26:50;5.97;;;3.57;;
6109;SDS011;3085;49.444;11.054;2022-11-11T11:29:26;5.57;;;3.27;;
6109;SDS011;3085;49.444;11.054;2022-11-11T11:31:55;7.27;;;3.17;;
6109;SDS011;3085;49.444;11.054;2022-11-11T11:34:42;7.90;;;3.13;;
6109;SDS011;3085;49.444;11.054;2022-11-11T11:37:14;4.20;;;2.90;;
6109;SDS011;3085;49.444;11.054;2022-11-11T11:39:42;6.80;;;3.83;;
6109;SDS011;3085;49.444;11.054;2022-11-11T11:44:56;6.20;;;3.00;;
6109;SDS011;3085;49.444;11.054;2022-11-11T11:47:41;4.27;;;2.63;;
6109;SDS011;3085;49.444;11.054;2022-11-11T11:53:22;6.50;;;3.20;;
6109;SDS011;3085;49.444;11.054;2022-11-11T11:56:02;6.53;;;2.83;;
6109;SDS011;3085;49.444;11.054;2022-11-11T11:58:41;3.50;;;2.33;;
6109;SDS011;3085;49.444;11.054;2022-11-11T12:01:20;8.93;;;2.83;;
6109;SDS011;3085;49.444;11.054;2022-11-11T12:07:04;5.27;;;2.60;;
6109;SDS011;3085;49.444;11.054;2022-11-11T12:09:40;4.60;;;2.17;;
6109;SDS011;3085;49.444;11.054;2022-11-11T12:12:19;5.73;;;2.87;;
6109;SDS011;3085;49.444;11.054;2022-11-11T12:14:57;4.70;;;2.47;;
6109;SDS011;3085;49.444;11.054;2022-11-11T12:17:35;5.30;;;2.90;;
6109;SDS011;3085;49.444;11.054;2022-11-11T12:20:14;4.13;;;2.20;;
6109;SDS011;3085;49.444;11.054;2022-11-11T12:22:51;3.60;;;1.90;;
6109;SDS011;3085;49.444;11.054;2022-11-11T12:25:35;3.87;;;2.20;;
6109;SDS011;3085;49.444;11.054;2022-11-11T12:28:12;4.50;;;2.47;;
6109;SDS011;3085;49.444;11.054;2022-11-11T12:30:51;11.93;;;5.90;;
6109;SDS011;3085;49.444;11.054;2022-11-11T12:33:40;15.70;;;6.40;;
6109;SDS011;3085;49.444;11.054;2022-11-11T12:36:26;6.90;;;2.50;;
6109;SDS011;3085;49.444;11.054;2022-11-11T12:39:02;7.07;;;2.50;;
6109;SDS011;3085;49.444;11.054;2022-11-11T12:41:41;6.33;;;3.23;;
6109;SDS011;3085;49.444;11.054;2022-11-11T12:44:16;7.60;;;3.93;;
6109;SDS011;3085;49.444;11.054;2022-11-11T12:46:53;6.00;;;2.20;;
6109;SDS011;3085;49.444;11.054;2022-11-11T12:49:45;5.63;;;2.53;;
6109;SDS011;3085;49.444;11.054;2022-11-11T12:52:22;24.37;;;2.70;;
6109;SDS011;3085;49.444;11.054;2022-11-11T12:55:05;3.97;;;2.17;;
6109;SDS011;3085;49.444;11.054;2022-11-11T12:57:41;5.33;;;2.60;;
6109;SDS011;3085;49.444;11.054;2022-11-11T13:00:26;9.13;;;2.53;;
6109;SDS011;3085;49.444;11.054;2022-11-11T13:03:01;6.60;;;2.40;;
6109;SDS011;3085;49.444;11.054;2022-11-11T13:05:37;6.70;;;2.57;;
6109;SDS011;3085;49.444;11.054;2022-11-11T13:08:14;9.73;;;3.20;;
6109;SDS011;3085;49.444;11.054;2022-11-11T13:11:11;5.47;;;2.67;;
6109;SDS011;3085;49.444;11.054;2022-11-11T13:13:49;4.60;;;2.10;;
6109;SDS011;3085;49.444;11.054;2022-11-11T13:16:25;4.73;;;2.10;;
6109;SDS011;3085;49.444;11.054;2022-11-11T13:18:54;4.50;;;1.93;;
6109;SDS011;3085;49.444;11.054;2022-11-11T13:21:25;6.70;;;2.57;;
6109;SDS011;3085;49.444;11.054;2022-11-11T13:23:57;3.20;;;2.00;;
6109;SDS011;3085;49.444;11.054;2022-11-11T13:26:25;2.83;;;2.00;;
6109;SDS011;3085;49.444;11.054;2022-11-11T13:29:00;3.97;;;1.77;;
6109;SDS011;3085;49.444;11.054;2022-11-11T13:31:56;8.10;;;2.17;;
6109;SDS011;3085;49.444;11.054;2022-11-11T13:34:26;5.87;;;3.30;;
6109;SDS011;3085;49.444;11.054;2022-11-11T13:36:58;4.33;;;2.33;;
6109;SDS011;3085;49.444;11.054;2022-11-11T13:39:29;4.87;;;2.73;;
6109;SDS011;3085;49.444;11.054;2022-11-11T13:41:59;6.30;;;2.43;;
6109;SDS011;3085;49.444;11.054;2022-11-11T13:44:28;4.93;;;2.63;;
6109;SDS011;3085;49.444;11.054;2022-11-11T13:47:02;3.33;;;2.00;;
6109;SDS011;3085;49.444;11.054;2022-11-11T13:49:31;4.60;;;2.60;;
6109;SDS011;3085;49.444;11.054;2022-11-11T13:52:01;9.70;;;2.37;;
6109;SDS011;3085;49.444;11.054;2022-11-11T13:54:31;4.87;;;2.40;;
6109;SDS011;3085;49.444;11.054;2022-11-11T13:57:00;3.30;;;1.60;;
6109;SDS011;3085;49.444;11.054;2022-11-11T13:59:31;2.97;;;2.07;;
6109;SDS011;3085;49.444;11.054;2022-11-11T14:05:18;7.13;;;2.07;;
6109;SDS011;3085;49.444;11.054;2022-11-11T14:07:51;3.20;;;1.80;;
6109;SDS011;3085;49.444;11.054;2022-11-11T14:13:37;2.97;;;1.63;;
6109;SDS011;3085;49.444;11.054;2022-11-11T14:16:09;4.50;;;1.70;;
6109;SDS011;3085;49.444;11.054;2022-11-11T14:18:38;1.87;;;1.53;;
6109;SDS011;3085;49.444;11.054;2022-11-11T14:21:11;5.03;;;1.53;;
6109;SDS011;3085;49.444;11.054;2022-11-11T14:24:20;3.77;;;1.80;;
6109;SDS011;3085;49.444;11.054;2022-11-11T14:26:55;7.63;;;1.90;;
6109;SDS011;3085;49.444;11.054;2022-11-11T14:29:23;2.50;;;1.57;;
6109;SDS011;3085;49.444;11.054;2022-11-11T14:32:09;26.77;;;9.43;;
6109;SDS011;3085;49.444;11.054;2022-11-11T14:34:53;12.20;;;5.10;;
6109;SDS011;3085;49.444;11.054;2022-11-11T14:37:38;6.10;;;2.50;;
6109;SDS011;3085;49.444;11.054;2022-11-11T14:40:23;2.93;;;1.80;;
6109;SDS011;3085;49.444;11.054;2022-11-11T14:42:50;5.40;;;2.87;;
6109;SDS011;3085;49.444;11.054;2022-11-11T14:51:37;3.43;;;1.77;;
6109;SDS011;3085;49.444;11.054;2022-11-11T14:54:16;3.70;;;2.30;;
6109;SDS011;3085;49.444;11.054;2022-11-11T14:56:54;4.00;;;2.20;;
6109;SDS011;3085;49.444;11.054;2022-11-11T14:59:25;4.13;;;2.20;;
6109;SDS011;3085;49.444;11.054;2022-11-11T15:01:54;4.70;;;2.27;;
6109;SDS011;3085;49.444;11.054;2022-11-11T15:04:25;5.17;;;2.70;;
6109;SDS011;3085;49.444;11.054;2022-11-11T15:07:01;7.40;;;3.60;;
6109;SDS011;3085;49.444;11.054;2022-11-11T15:09:35;6.00;;;2.83;;
6109;SDS011;3085;49.444;11.054;2022-11-11T15:12:17;4.60;;;2.50;;
6109;SDS011;3085;49.444;11.054;2022-11-11T15:14:54;10.20;;;2.70;;
6109;SDS011;3085;49.444;11.054;2022-11-11T15:17:34;4.67;;;2.30;;
6109;SDS011;3085;49.444;11.054;2022-11-11T15:23:02;7.07;;;3.50;;
6109;SDS011;3085;49.444;11.054;2022-11-11T15:25:43;10.37;;;6.00;;
6109;SDS011;3085;49.444;11.054;2022-11-11T15:28:38;9.53;;;5.50;;
6109;SDS011;3085;49.444;11.054;2022-11-11T15:31:20;28.93;;;12.03;;
6109;SDS011;3085;49.444;11.054;2022-11-11T15:33:53;22.43;;;9.07;;
6109;SDS011;3085;49.444;11.054;2022-11-11T15:36:31;5.63;;;3.40;;
6109;SDS011;3085;49.444;11.054;2022-11-11T15:39:16;10.80;;;7.50;;
6109;SDS011;3085;49.444;11.054;2022-11-11T15:41:48;11.73;;;4.60;;
6109;SDS011;3085;49.444;11.054;2022-11-11T15:44:17;3.93;;;2.73;;
6109;SDS011;3085;49.444;11.054;2022-11-11T15:46:47;4.87;;;2.93;;
6109;SDS011;3085;49.444;11.054;2022-11-11T15:52:03;6.07;;;3.20;;
6109;SDS011;3085;49.444;11.054;2022-11-11T15:54:31;11.07;;;4.90;;
6109;SDS011;3085;49.444;11.054;2022-11-11T15:57:00;10.37;;;5.63;;
6109;SDS011;3085;49.444;11.054;2022-11-11T15:59:47;8.23;;;4.20;;
6109;SDS011;3085;49.444;11.054;2022-11-11T16:02:16;8.43;;;3.93;;